createdAt,value
2016-11-12T00:00:38.051Z,1025.8
2016-11-12T00:02:40.890Z,1025.8
2016-11-12T00:03:42.332Z,1025.8
2016-11-12T00:04:43.268Z,1025.8
2016-11-12T00:05:44.714Z,1025.9
2016-11-12T00:06:46.157Z,1025.8
2016-11-12T00:07:47.598Z,1025.8
2016-11-12T00:08:49.038Z,1025.8
2016-11-12T00:09:50.479Z,1025.8
2016-11-12T00:10:51.920Z,1025.8
2016-11-12T00:12:54.760Z,1025.8
2016-11-12T00:13:56.197Z,1025.8
2016-11-12T00:14:57.635Z,1025.8
2016-11-12T00:15:59.071Z,1025.8
2016-11-12T00:17:00.517Z,1025.8
2016-11-12T00:18:01.953Z,1025.7
2016-11-12T00:19:03.399Z,1025.8
2016-11-12T00:20:04.844Z,1025.8
2016-11-12T00:21:06.293Z,1025.8
2016-11-12T00:22:07.737Z,1025.8
2016-11-12T00:23:09.180Z,1025.8
2016-11-12T00:24:10.627Z,1025.8
2016-11-12T00:25:12.072Z,1025.8
2016-11-12T00:26:13.508Z,1025.8
2016-11-12T00:28:16.344Z,1025.8
2016-11-12T00:29:17.790Z,1025.7
2016-11-12T00:31:20.629Z,1025.7
2016-11-12T00:32:22.070Z,1025.7
2016-11-12T00:33:23.511Z,1025.7
2016-11-12T00:34:24.452Z,1025.6
2016-11-12T00:35:26.023Z,1025.7
2016-11-12T00:36:27.457Z,1025.6
2016-11-12T00:37:28.900Z,1025.7
2016-11-12T00:38:30.477Z,1025.7
2016-11-12T00:39:31.979Z,1025.7
2016-11-12T00:40:33.418Z,1025.6
2016-11-12T00:41:34.855Z,1025.6
2016-11-12T00:42:36.303Z,1025.6
2016-11-12T00:43:37.733Z,1025.6
2016-11-12T00:44:38.666Z,1025.6
2016-11-12T00:45:40.106Z,1025.6
2016-11-12T00:46:41.547Z,1025.6
2016-11-12T00:47:42.990Z,1025.6
2016-11-12T00:48:44.465Z,1025.6
2016-11-12T00:49:45.903Z,1025.6
2016-11-12T00:50:47.346Z,1025.6
2016-11-12T00:51:48.787Z,1025.6
2016-11-12T00:52:50.229Z,1025.6
2016-11-12T00:53:51.675Z,1025.6
2016-11-12T00:54:53.115Z,1025.6
2016-11-12T00:55:54.556Z,1025.7
2016-11-12T00:56:56.125Z,1025.6
2016-11-12T00:57:57.567Z,1025.7
2016-11-12T00:58:59.007Z,1025.7
2016-11-12T01:00:00.448Z,1025.7
2016-11-12T01:01:01.891Z,1025.7
2016-11-12T01:02:02.827Z,1025.7
2016-11-12T01:03:04.284Z,1025.7
2016-11-12T01:04:05.729Z,1025.8
2016-11-12T01:05:07.172Z,1025.7
2016-11-12T01:06:08.619Z,1025.8
2016-11-12T01:07:10.062Z,1025.8
2016-11-12T01:08:11.504Z,1025.7
2016-11-12T01:09:12.948Z,1025.8
2016-11-12T01:10:14.385Z,1025.8
2016-11-12T01:11:15.823Z,1025.8
2016-11-12T01:12:17.258Z,1025.7
2016-11-12T01:13:18.705Z,1025.8
2016-11-12T01:15:21.541Z,1025.8
2016-11-12T01:16:22.984Z,1025.8
2016-11-12T01:17:24.427Z,1025.8
2016-11-12T01:19:27.261Z,1025.8
2016-11-12T01:20:28.698Z,1025.9
2016-11-12T01:21:30.136Z,1025.9
2016-11-12T01:22:31.576Z,1025.8
2016-11-12T01:23:33.014Z,1025.8
2016-11-12T01:24:34.464Z,1025.8
2016-11-12T01:25:35.904Z,1025.8
2016-11-12T01:26:37.351Z,1025.8
2016-11-12T01:27:38.795Z,1025.8
2016-11-12T01:28:39.732Z,1025.8
2016-11-12T01:29:41.169Z,1025.8
2016-11-12T01:30:42.745Z,1025.8
2016-11-12T01:31:44.188Z,1025.8
2016-11-12T01:33:47.037Z,1025.9
2016-11-12T01:34:48.476Z,1025.9
2016-11-12T01:35:49.916Z,1025.8
2016-11-12T01:36:51.360Z,1025.8
2016-11-12T01:37:52.797Z,1025.8
2016-11-12T01:38:54.240Z,1025.8
2016-11-12T01:39:55.730Z,1025.8
2016-11-12T01:40:57.168Z,1025.8
2016-11-12T01:41:58.607Z,1025.8
2016-11-12T01:43:00.062Z,1025.7
2016-11-12T01:44:01.508Z,1025.7
2016-11-12T01:45:02.447Z,1025.7
2016-11-12T01:46:03.889Z,1025.8
2016-11-12T01:47:05.333Z,1025.8
2016-11-12T01:48:06.776Z,1025.7
2016-11-12T01:49:08.214Z,1025.8
2016-11-12T01:50:09.660Z,1025.8
2016-11-12T01:52:12.498Z,1025.8
2016-11-12T01:53:13.937Z,1025.8
2016-11-12T01:54:15.372Z,1025.7
2016-11-12T01:55:16.813Z,1025.7
2016-11-12T01:56:18.256Z,1025.8
2016-11-12T01:57:19.698Z,1025.8
2016-11-12T01:58:21.193Z,1025.9
2016-11-12T01:59:22.632Z,1025.8
2016-11-12T02:01:25.468Z,1025.8
2016-11-12T02:02:26.908Z,1025.8
2016-11-12T02:03:28.348Z,1025.8
2016-11-12T02:04:29.784Z,1025.8
2016-11-12T02:05:31.224Z,1025.8
2016-11-12T02:06:32.670Z,1025.9
2016-11-12T02:07:34.105Z,1025.9
2016-11-12T02:08:35.540Z,1025.9
2016-11-12T02:09:36.503Z,1025.9
2016-11-12T02:10:37.941Z,1025.9
2016-11-12T02:11:39.378Z,1025.9
2016-11-12T02:12:40.816Z,1025.9
2016-11-12T02:13:42.254Z,1025.9
2016-11-12T02:14:43.692Z,1025.9
2016-11-12T02:15:45.126Z,1025.9
2016-11-12T02:16:46.565Z,1025.8
2016-11-12T02:17:48.005Z,1025.9
2016-11-12T02:18:49.448Z,1025.9
2016-11-12T02:19:50.891Z,1026
2016-11-12T02:20:52.328Z,1026
2016-11-12T02:21:53.772Z,1026
2016-11-12T02:22:55.211Z,1026
2016-11-12T02:23:56.653Z,1026.1
2016-11-12T02:24:58.126Z,1026.1
2016-11-12T02:25:59.562Z,1026.1
2016-11-12T02:27:01.008Z,1026.1
2016-11-12T02:28:02.442Z,1026.1
2016-11-12T02:29:03.877Z,1026.1
2016-11-12T02:30:05.325Z,1026
2016-11-12T02:31:06.762Z,1026.1
2016-11-12T02:32:08.198Z,1026.1
2016-11-12T02:33:09.648Z,1026.1
2016-11-12T02:34:11.090Z,1026.1
2016-11-12T02:35:12.027Z,1026.2
2016-11-12T02:36:13.465Z,1026.2
2016-11-12T02:37:14.899Z,1026.2
2016-11-12T02:38:16.334Z,1026.2
2016-11-12T02:39:17.783Z,1026.2
2016-11-12T02:40:19.223Z,1026.2
2016-11-12T02:41:20.664Z,1026.2
2016-11-12T02:43:23.501Z,1026.3
2016-11-12T02:44:24.941Z,1026.2
2016-11-12T02:45:26.378Z,1026.3
2016-11-12T02:46:27.818Z,1026.3
2016-11-12T02:47:29.407Z,1026.3
2016-11-12T02:48:30.843Z,1026.3
2016-11-12T02:49:32.283Z,1026.3
2016-11-12T02:50:33.721Z,1026.3
2016-11-12T02:51:35.159Z,1026.4
2016-11-12T02:52:36.602Z,1026.3
2016-11-12T02:55:40.840Z,1026.4
2016-11-12T02:56:42.276Z,1026.4
2016-11-12T02:57:43.720Z,1026.4
2016-11-12T02:58:45.162Z,1026.3
2016-11-12T02:59:46.604Z,1026.4
2016-11-12T03:01:49.444Z,1026.4
2016-11-12T03:02:50.884Z,1026.4
2016-11-12T03:03:51.857Z,1026.4
2016-11-12T03:04:53.298Z,1026.4
2016-11-12T03:05:54.735Z,1026.4
2016-11-12T03:07:57.573Z,1026.4
2016-11-12T03:08:59.230Z,1026.5
2016-11-12T03:10:00.668Z,1026.5
2016-11-12T03:11:02.102Z,1026.5
2016-11-12T03:12:03.545Z,1026.6
2016-11-12T03:13:04.996Z,1026.6
2016-11-12T03:14:06.431Z,1026.5
2016-11-12T03:15:07.864Z,1026.5
2016-11-12T03:16:09.295Z,1026.6
2016-11-12T03:17:10.746Z,1026.6
2016-11-12T03:18:12.188Z,1026.5
2016-11-12T03:20:15.039Z,1026.6
2016-11-12T03:21:15.985Z,1026.6
2016-11-12T03:22:17.414Z,1026.6
2016-11-12T03:23:18.850Z,1026.6
2016-11-12T03:24:20.288Z,1026.6
2016-11-12T03:25:21.735Z,1026.6
2016-11-12T03:26:23.175Z,1026.6
2016-11-12T03:27:24.612Z,1026.6
2016-11-12T03:28:26.046Z,1026.6
2016-11-12T03:29:27.678Z,1026.5
2016-11-12T03:30:29.113Z,1026.5
2016-11-12T03:31:30.547Z,1026.5
2016-11-12T03:32:31.994Z,1026.6
2016-11-12T03:33:33.428Z,1026.6
2016-11-12T03:34:34.864Z,1026.6
2016-11-12T03:35:36.314Z,1026.6
2016-11-12T03:36:37.749Z,1026.6
2016-11-12T03:38:40.620Z,1026.6
2016-11-12T03:39:42.056Z,1026.6
2016-11-12T03:40:42.988Z,1026.6
2016-11-12T03:41:44.454Z,1026.6
2016-11-12T03:42:45.893Z,1026.6
2016-11-12T03:43:47.331Z,1026.6
2016-11-12T03:44:48.765Z,1026.6
2016-11-12T03:45:50.205Z,1026.6
2016-11-12T03:46:51.680Z,1026.6
2016-11-12T03:47:53.121Z,1026.6
2016-11-12T03:49:55.954Z,1026.6
2016-11-12T03:50:57.389Z,1026.7
2016-11-12T03:51:58.823Z,1026.6
2016-11-12T03:53:00.258Z,1026.6
2016-11-12T03:54:01.691Z,1026.6
2016-11-12T03:55:03.127Z,1026.6
2016-11-12T03:56:04.561Z,1026.6
2016-11-12T03:57:06.000Z,1026.6
2016-11-12T03:58:07.470Z,1026.6
2016-11-12T03:59:08.904Z,1026.6
2016-11-12T04:00:10.339Z,1026.7
2016-11-12T04:01:11.779Z,1026.6
2016-11-12T04:02:13.212Z,1026.6
2016-11-12T04:04:16.045Z,1026.6
2016-11-12T04:05:17.487Z,1026.6
2016-11-12T04:06:18.919Z,1026.6
2016-11-12T04:07:20.360Z,1026.7
2016-11-12T04:08:21.796Z,1026.7
2016-11-12T04:09:23.234Z,1026.7
2016-11-12T04:10:24.163Z,1026.7
2016-11-12T04:11:25.598Z,1026.7
2016-11-12T04:12:27.162Z,1026.7
2016-11-12T04:13:28.549Z,1026.7
2016-11-12T04:14:29.987Z,1026.7
2016-11-12T04:15:31.421Z,1026.7
2016-11-12T04:16:32.855Z,1026.7
2016-11-12T04:17:34.298Z,1026.8
2016-11-12T04:19:37.142Z,1026.7
2016-11-12T04:20:38.580Z,1026.7
2016-11-12T04:22:41.418Z,1026.8
2016-11-12T04:23:42.852Z,1026.8
2016-11-12T04:24:44.290Z,1026.8
2016-11-12T04:25:45.729Z,1026.8
2016-11-12T04:26:47.330Z,1026.8
2016-11-12T04:27:48.763Z,1026.8
2016-11-12T04:28:50.201Z,1026.8
2016-11-12T04:29:51.128Z,1026.8
2016-11-12T04:30:52.563Z,1026.8
2016-11-12T04:31:53.998Z,1026.7
2016-11-12T04:32:55.435Z,1026.8
2016-11-12T04:33:56.869Z,1026.7
2016-11-12T04:34:58.300Z,1026.8
2016-11-12T04:35:59.736Z,1026.8
2016-11-12T04:37:01.179Z,1026.8
2016-11-12T04:38:02.616Z,1026.8
2016-11-12T04:39:04.053Z,1026.8
2016-11-12T04:40:05.625Z,1026.8
2016-11-12T04:41:07.060Z,1026.9
2016-11-12T04:42:08.499Z,1026.9
2016-11-12T04:43:09.937Z,1026.9
2016-11-12T04:44:11.375Z,1026.8
2016-11-12T04:45:12.810Z,1026.9
2016-11-12T04:46:14.251Z,1026.8
2016-11-12T04:48:17.090Z,1026.9
2016-11-12T04:49:18.528Z,1026.8
2016-11-12T04:50:19.969Z,1026.8
2016-11-12T04:51:21.419Z,1026.8
2016-11-12T04:52:22.863Z,1026.8
2016-11-12T04:53:23.931Z,1026.8
2016-11-12T04:54:25.370Z,1026.8
2016-11-12T04:55:26.808Z,1026.8
2016-11-12T04:56:28.252Z,1026.7
2016-11-12T04:57:29.688Z,1026.7
2016-11-12T04:58:31.132Z,1026.7
2016-11-12T04:59:32.565Z,1026.7
2016-11-12T05:00:34.003Z,1026.8
2016-11-12T05:01:35.442Z,1026.8
2016-11-12T05:02:36.876Z,1026.8
2016-11-12T05:03:38.313Z,1026.8
2016-11-12T05:04:39.887Z,1026.8
2016-11-12T05:05:40.829Z,1026.8
2016-11-12T05:06:42.269Z,1026.8
2016-11-12T05:07:43.706Z,1026.8
2016-11-12T05:08:45.145Z,1026.8
2016-11-12T05:09:46.578Z,1026.8
2016-11-12T05:10:48.027Z,1026.8
2016-11-12T05:11:49.461Z,1026.8
2016-11-12T05:12:50.904Z,1026.9
2016-11-12T05:13:52.471Z,1026.8
2016-11-12T05:14:53.912Z,1026.8
2016-11-12T05:15:55.344Z,1026.8
2016-11-12T05:16:56.777Z,1026.8
2016-11-12T05:17:57.849Z,1026.9
2016-11-12T05:18:59.287Z,1026.9
2016-11-12T05:20:00.726Z,1026.8
2016-11-12T05:21:02.160Z,1026.9
2016-11-12T05:22:03.602Z,1026.9
2016-11-12T05:23:05.038Z,1026.9
2016-11-12T05:25:07.874Z,1026.9
2016-11-12T05:26:09.312Z,1026.9
2016-11-12T05:27:10.750Z,1026.9
2016-11-12T05:28:12.183Z,1026.9
2016-11-12T05:29:13.623Z,1026.9
2016-11-12T05:30:15.054Z,1026.8
2016-11-12T05:31:16.488Z,1026.9
2016-11-12T05:32:17.926Z,1026.9
2016-11-12T05:33:19.381Z,1026.9
2016-11-12T05:34:20.820Z,1026.9
2016-11-12T05:35:22.394Z,1026.9
2016-11-12T05:37:25.237Z,1026.9
2016-11-12T05:38:26.313Z,1026.9
2016-11-12T05:39:27.763Z,1026.9
2016-11-12T05:40:29.230Z,1027
2016-11-12T05:41:30.736Z,1026.9
2016-11-12T05:42:32.173Z,1026.9
2016-11-12T05:43:33.741Z,1026.9
2016-11-12T05:44:35.175Z,1026.9
2016-11-12T05:45:36.111Z,1027
2016-11-12T05:46:37.544Z,1026.9
2016-11-12T05:47:38.975Z,1027
2016-11-12T05:48:40.411Z,1027
2016-11-12T05:50:43.552Z,1026.9
2016-11-12T05:51:44.987Z,1027
2016-11-12T05:52:46.430Z,1026.9
2016-11-12T05:53:47.867Z,1026.9
2016-11-12T05:54:49.298Z,1026.9
2016-11-12T05:55:50.739Z,1026.9
2016-11-12T05:56:52.175Z,1026.9
2016-11-12T05:57:53.106Z,1026.9
2016-11-12T05:58:54.545Z,1026.9
2016-11-12T05:59:55.980Z,1026.9
2016-11-12T06:00:57.418Z,1026.8
2016-11-12T06:01:58.863Z,1026.8
2016-11-12T06:03:00.304Z,1026.9
2016-11-12T06:04:01.873Z,1026.9
2016-11-12T06:05:03.320Z,1026.8
2016-11-12T06:06:04.891Z,1026.8
2016-11-12T06:07:05.891Z,1026.8
2016-11-12T06:08:07.333Z,1026.8
2016-11-12T06:09:08.768Z,1026.8
2016-11-12T06:10:10.211Z,1026.9
2016-11-12T06:11:11.658Z,1026.9
2016-11-12T06:12:13.103Z,1026.8
2016-11-12T06:13:14.537Z,1026.9
2016-11-12T06:14:15.972Z,1026.9
2016-11-12T06:16:18.963Z,1027
2016-11-12T06:17:20.400Z,1027
2016-11-12T06:18:21.842Z,1027
2016-11-12T06:19:23.275Z,1027
2016-11-12T06:20:24.710Z,1027.1
2016-11-12T06:21:26.146Z,1027.1
2016-11-12T06:22:27.579Z,1027.1
2016-11-12T06:23:29.017Z,1027.1
2016-11-12T06:24:30.449Z,1027.1
2016-11-12T06:25:31.414Z,1027.1
2016-11-12T06:26:32.935Z,1027.1
2016-11-12T06:27:34.383Z,1027
2016-11-12T06:28:35.822Z,1027
2016-11-12T06:29:37.304Z,1027.1
2016-11-12T06:30:38.741Z,1027.1
2016-11-12T06:31:40.175Z,1027.1
2016-11-12T06:32:41.610Z,1027.1
2016-11-12T06:34:44.442Z,1027.1
2016-11-12T06:35:45.886Z,1027.1
2016-11-12T06:36:47.328Z,1027.1
2016-11-12T06:37:48.766Z,1027.1
2016-11-12T06:38:50.200Z,1027
2016-11-12T06:39:51.700Z,1027.1
2016-11-12T06:41:54.537Z,1027.1
2016-11-12T06:42:55.971Z,1027.1
2016-11-12T06:43:57.405Z,1027.1
2016-11-12T06:44:58.836Z,1027.2
2016-11-12T06:45:59.945Z,1027.1
2016-11-12T06:47:01.382Z,1027.2
2016-11-12T06:48:02.821Z,1027.2
2016-11-12T06:49:04.267Z,1027.2
2016-11-12T06:50:05.702Z,1027.1
2016-11-12T06:51:07.139Z,1027.1
2016-11-12T06:52:08.578Z,1027.1
2016-11-12T06:53:10.006Z,1027.1
2016-11-12T06:54:11.441Z,1027.2
2016-11-12T06:55:12.885Z,1027.1
2016-11-12T06:56:14.322Z,1027.1
2016-11-12T06:57:15.756Z,1027.1
2016-11-12T06:58:17.197Z,1027.1
2016-11-12T07:00:20.057Z,1027.1
2016-11-12T07:01:21.499Z,1027.1
2016-11-12T07:02:22.937Z,1027.1
2016-11-12T07:03:24.373Z,1027.2
2016-11-12T07:04:25.812Z,1027.1
2016-11-12T07:05:26.743Z,1027.1
2016-11-12T07:06:28.179Z,1027.2
2016-11-12T07:07:29.679Z,1027.2
2016-11-12T07:08:31.125Z,1027.2
2016-11-12T07:09:32.565Z,1027.2
2016-11-12T07:10:33.999Z,1027.2
2016-11-12T07:11:35.440Z,1027.1
2016-11-12T07:12:36.882Z,1027.2
2016-11-12T07:13:38.329Z,1027.2
2016-11-12T07:14:39.760Z,1027.2
2016-11-12T07:15:41.199Z,1027.2
2016-11-12T07:16:42.633Z,1027.2
2016-11-12T07:18:45.470Z,1027.2
2016-11-12T07:19:46.911Z,1027.2
2016-11-12T07:20:48.375Z,1027.2
2016-11-12T07:21:49.571Z,1027.2
2016-11-12T07:22:50.898Z,1027.2
2016-11-12T07:23:52.333Z,1027.3
2016-11-12T07:24:53.774Z,1027.2
2016-11-12T07:25:55.219Z,1027.3
2016-11-12T07:26:56.654Z,1027.2
2016-11-12T07:27:58.133Z,1027.2
2016-11-12T07:28:59.572Z,1027.2
2016-11-12T07:30:01.014Z,1027.2
2016-11-12T07:31:02.453Z,1027.2
2016-11-12T07:32:03.892Z,1027.2
2016-11-12T07:33:05.335Z,1027.2
2016-11-12T07:34:06.809Z,1027.2
2016-11-12T07:35:08.240Z,1027.2
2016-11-12T07:36:09.679Z,1027.1
2016-11-12T07:37:11.113Z,1027.2
2016-11-12T07:38:12.552Z,1027.2
2016-11-12T07:39:13.995Z,1027.1
2016-11-12T07:40:15.430Z,1027.2
2016-11-12T07:41:16.868Z,1027.1
2016-11-12T07:42:18.306Z,1027.1
2016-11-12T07:43:19.739Z,1027.2
2016-11-12T07:44:21.172Z,1027.1
2016-11-12T07:45:22.637Z,1027.2
2016-11-12T07:46:24.068Z,1027.2
2016-11-12T07:47:25.516Z,1027.2
2016-11-12T07:48:26.948Z,1027.2
2016-11-12T07:49:28.419Z,1027.2
2016-11-12T07:50:29.348Z,1027.2
2016-11-12T07:51:30.788Z,1027.2
2016-11-12T07:52:32.224Z,1027.2
2016-11-12T07:53:33.685Z,1027.2
2016-11-12T07:54:35.121Z,1027.3
2016-11-12T07:55:36.557Z,1027.3
2016-11-12T07:56:37.996Z,1027.2
2016-11-12T07:57:39.443Z,1027.3
2016-11-12T07:58:40.878Z,1027.3
2016-11-12T07:59:42.350Z,1027.3
2016-11-12T08:00:43.786Z,1027.3
2016-11-12T08:01:45.227Z,1027.3
2016-11-12T08:02:46.665Z,1027.3
2016-11-12T08:04:49.505Z,1027.3
2016-11-12T08:05:50.936Z,1027.3
2016-11-12T08:06:52.379Z,1027.4
2016-11-12T08:07:53.815Z,1027.4
2016-11-12T08:08:55.249Z,1027.3
2016-11-12T08:09:56.687Z,1027.3
2016-11-12T08:10:58.126Z,1027.4
2016-11-12T08:11:59.562Z,1027.3
2016-11-12T08:13:01.001Z,1027.4
2016-11-12T08:14:02.441Z,1027.4
2016-11-12T08:15:03.881Z,1027.4
2016-11-12T08:16:05.326Z,1027.4
2016-11-12T08:17:06.793Z,1027.3
2016-11-12T08:18:08.231Z,1027.4
2016-11-12T08:20:11.064Z,1027.4
2016-11-12T08:21:12.500Z,1027.4
2016-11-12T08:23:15.343Z,1027.4
2016-11-12T08:24:16.781Z,1027.5
2016-11-12T08:25:18.224Z,1027.5
2016-11-12T08:26:19.657Z,1027.4
2016-11-12T08:27:21.095Z,1027.4
2016-11-12T08:28:22.570Z,1027.4
2016-11-12T08:29:24.007Z,1027.4
2016-11-12T08:30:25.446Z,1027.4
2016-11-12T08:31:26.890Z,1027.4
2016-11-12T08:32:28.332Z,1027.4
2016-11-12T08:33:29.780Z,1027.5
2016-11-12T08:34:30.727Z,1027.4
2016-11-12T08:35:32.166Z,1027.4
2016-11-12T08:37:35.509Z,1027.5
2016-11-12T08:38:36.946Z,1027.5
2016-11-12T08:39:37.879Z,1027.4
2016-11-12T08:40:39.319Z,1027.5
2016-11-12T08:41:40.761Z,1027.5
2016-11-12T08:42:42.197Z,1027.4
2016-11-12T08:43:43.639Z,1027.5
2016-11-12T08:44:45.088Z,1027.5
2016-11-12T08:45:46.541Z,1027.5
2016-11-12T08:46:47.976Z,1027.5
2016-11-12T08:47:49.421Z,1027.5
2016-11-12T08:48:50.860Z,1027.5
2016-11-12T08:49:52.308Z,1027.5
2016-11-12T08:50:53.747Z,1027.5
2016-11-12T08:51:55.184Z,1027.5
2016-11-12T08:52:56.624Z,1027.6
2016-11-12T08:53:58.349Z,1027.5
2016-11-12T08:56:01.188Z,1027.6
2016-11-12T08:57:02.627Z,1027.6
2016-11-12T08:58:04.065Z,1027.6
2016-11-12T08:59:05.504Z,1027.5
2016-11-12T09:00:06.943Z,1027.6
2016-11-12T09:01:08.393Z,1027.6
2016-11-12T09:02:09.472Z,1027.6
2016-11-12T09:03:11.166Z,1027.6
2016-11-12T09:04:12.385Z,1027.6
2016-11-12T09:05:13.817Z,1027.6
2016-11-12T09:06:15.255Z,1027.6
2016-11-12T09:07:16.691Z,1027.7
2016-11-12T09:08:18.131Z,1027.7
2016-11-12T09:09:19.602Z,1027.7
2016-11-12T09:10:21.040Z,1027.7
2016-11-12T09:11:22.478Z,1027.6
2016-11-12T09:12:23.915Z,1027.7
2016-11-12T09:13:25.497Z,1027.7
2016-11-12T09:14:26.931Z,1027.6
2016-11-12T09:15:28.370Z,1027.6
2016-11-12T09:17:31.207Z,1027.7
2016-11-12T09:18:32.642Z,1027.7
2016-11-12T09:19:34.086Z,1027.7
2016-11-12T09:20:35.521Z,1027.8
2016-11-12T09:21:36.957Z,1027.7
2016-11-12T09:22:38.397Z,1027.7
2016-11-12T09:23:39.865Z,1027.7
2016-11-12T09:24:41.304Z,1027.7
2016-11-12T09:25:42.737Z,1027.7
2016-11-12T09:26:44.172Z,1027.7
2016-11-12T09:27:45.613Z,1027.7
2016-11-12T09:28:47.052Z,1027.7
2016-11-12T09:29:48.488Z,1027.8
2016-11-12T09:30:49.923Z,1027.8
2016-11-12T09:31:51.357Z,1027.7
2016-11-12T09:32:52.794Z,1027.7
2016-11-12T09:33:54.231Z,1027.7
2016-11-12T09:34:55.671Z,1027.8
2016-11-12T09:36:58.517Z,1027.8
2016-11-12T09:37:59.960Z,1027.8
2016-11-12T09:39:01.407Z,1027.8
2016-11-12T09:40:02.846Z,1027.8
2016-11-12T09:41:04.285Z,1027.8
2016-11-12T09:42:05.720Z,1027.8
2016-11-12T09:43:07.155Z,1027.7
2016-11-12T09:44:08.591Z,1027.8
2016-11-12T09:45:10.027Z,1027.8
2016-11-12T09:46:11.468Z,1027.8
2016-11-12T09:47:12.907Z,1027.8
2016-11-12T09:48:14.350Z,1027.8
2016-11-12T09:49:15.791Z,1027.8
2016-11-12T09:51:18.502Z,1027.7
2016-11-12T09:52:19.873Z,1027.7
2016-11-12T09:53:21.703Z,1027.7
2016-11-12T09:55:25.681Z,1027.7
2016-11-12T09:56:25.999Z,1027.7
2016-11-12T09:57:27.425Z,1027.7
2016-11-12T09:58:28.862Z,1027.7
2016-11-12T09:59:30.304Z,1027.7
2016-11-12T10:00:31.742Z,1027.7
2016-11-12T10:02:34.580Z,1027.7
2016-11-12T10:03:36.018Z,1027.7
2016-11-12T10:04:37.460Z,1027.7
2016-11-12T10:05:38.968Z,1027.7
2016-11-12T10:06:40.413Z,1027.7
2016-11-12T10:07:41.852Z,1027.7
2016-11-12T10:08:43.293Z,1027.7
2016-11-12T10:09:44.733Z,1027.7
2016-11-12T10:10:46.175Z,1027.7
2016-11-12T10:11:47.611Z,1027.7
2016-11-12T10:13:50.453Z,1027.6
2016-11-12T10:14:51.894Z,1027.7
2016-11-12T10:15:53.332Z,1027.7
2016-11-12T10:16:54.806Z,1027.6
2016-11-12T10:17:56.244Z,1027.6
2016-11-12T10:18:57.681Z,1027.6
2016-11-12T10:19:59.119Z,1027.6
2016-11-12T10:21:00.556Z,1027.6
2016-11-12T10:23:03.401Z,1027.7
2016-11-12T10:24:04.838Z,1027.6
2016-11-12T10:25:06.277Z,1027.6
2016-11-12T10:26:07.716Z,1027.6
2016-11-12T10:27:09.156Z,1027.6
2016-11-12T10:28:10.594Z,1027.6
2016-11-12T10:29:12.029Z,1027.6
2016-11-12T10:30:13.470Z,1027.5
2016-11-12T10:31:14.900Z,1027.5
2016-11-12T10:32:16.337Z,1027.5
2016-11-12T10:33:17.777Z,1027.5
2016-11-12T10:34:19.214Z,1027.5
2016-11-12T10:35:20.652Z,1027.5
2016-11-12T10:36:22.085Z,1027.5
2016-11-12T10:37:23.524Z,1027.4
2016-11-12T10:38:24.967Z,1027.5
2016-11-12T10:39:26.403Z,1027.4
2016-11-12T10:40:27.871Z,1027.5
2016-11-12T10:41:29.307Z,1027.5
2016-11-12T10:42:30.746Z,1027.5
2016-11-12T10:43:32.182Z,1027.4
2016-11-12T10:45:35.022Z,1027.5
2016-11-12T10:46:36.457Z,1027.4
2016-11-12T10:47:37.897Z,1027.4
2016-11-12T10:48:39.362Z,1027.4
2016-11-12T10:51:43.810Z,1027.3
2016-11-12T10:52:45.247Z,1027.3
2016-11-12T10:53:46.685Z,1027.3
2016-11-12T10:54:48.120Z,1027.3
2016-11-12T10:55:49.558Z,1027.3
2016-11-12T10:57:52.391Z,1027.2
2016-11-12T10:58:53.832Z,1027.3
2016-11-12T10:59:55.271Z,1027.2
2016-11-12T11:00:56.714Z,1027.2
2016-11-12T11:01:58.155Z,1027.2
2016-11-12T11:02:59.591Z,1027.2
2016-11-12T11:04:01.026Z,1027.2
2016-11-12T11:05:02.470Z,1027.2
2016-11-12T11:06:03.941Z,1027.1
2016-11-12T11:07:05.379Z,1027.2
2016-11-12T11:08:06.819Z,1027.2
2016-11-12T11:09:08.270Z,1027.1
2016-11-12T11:10:09.715Z,1027.2
2016-11-12T11:11:11.166Z,1027.1
2016-11-12T11:12:12.611Z,1027.1
2016-11-12T11:13:14.049Z,1027.1
2016-11-12T11:14:15.486Z,1027.1
2016-11-12T11:16:18.324Z,1027.1
2016-11-12T11:17:19.762Z,1027.1
2016-11-12T11:18:21.201Z,1027.1
2016-11-12T11:19:22.640Z,1027.1
2016-11-12T11:20:24.080Z,1027.1
2016-11-12T11:21:25.520Z,1027.1
2016-11-12T11:22:26.961Z,1027.1
2016-11-12T11:23:28.401Z,1027.1
2016-11-12T11:24:29.841Z,1027
2016-11-12T11:25:31.286Z,1027.1
2016-11-12T11:27:34.268Z,1027.1
2016-11-12T11:28:35.710Z,1027.1
2016-11-12T11:29:37.146Z,1027.1
2016-11-12T11:30:38.582Z,1027.1
2016-11-12T11:31:40.021Z,1027
2016-11-12T11:32:41.461Z,1027.1
2016-11-12T11:33:42.910Z,1027.1
2016-11-12T11:34:44.478Z,1027.1
2016-11-12T11:35:45.914Z,1027.1
2016-11-12T11:36:47.351Z,1027.1
2016-11-12T11:37:48.791Z,1027.1
2016-11-12T11:39:51.628Z,1027.1
2016-11-12T11:40:53.068Z,1027.1
2016-11-12T11:41:54.512Z,1027.1
2016-11-12T11:42:55.949Z,1027.1
2016-11-12T11:43:57.389Z,1027
2016-11-12T11:44:58.828Z,1027.1
2016-11-12T11:46:00.270Z,1027
2016-11-12T11:47:01.711Z,1027
2016-11-12T11:48:03.160Z,1026.9
2016-11-12T11:49:04.598Z,1027
2016-11-12T11:50:06.052Z,1027
2016-11-12T11:51:07.494Z,1027
2016-11-12T11:52:08.945Z,1027
2016-11-12T11:53:10.386Z,1027
2016-11-12T11:54:11.822Z,1027
2016-11-12T11:55:13.263Z,1027
2016-11-12T11:56:14.710Z,1027
2016-11-12T11:57:16.146Z,1027
2016-11-12T11:58:17.589Z,1026.9
2016-11-12T11:59:19.028Z,1027
2016-11-12T12:00:20.467Z,1026.9
2016-11-12T12:01:21.912Z,1026.9
2016-11-12T12:02:23.351Z,1027
2016-11-12T12:03:24.823Z,1026.9
2016-11-12T12:05:27.663Z,1027
2016-11-12T12:06:29.104Z,1026.9
2016-11-12T12:07:30.549Z,1026.9
2016-11-12T12:08:31.987Z,1026.9
2016-11-12T12:09:33.429Z,1026.9
2016-11-12T12:10:34.871Z,1026.9
2016-11-12T12:11:36.321Z,1026.9
2016-11-12T12:12:37.763Z,1026.9
2016-11-12T12:13:39.202Z,1026.9
2016-11-12T12:14:40.641Z,1026.9
2016-11-12T12:16:43.477Z,1027
2016-11-12T12:17:44.916Z,1026.9
2016-11-12T12:18:46.371Z,1026.9
2016-11-12T12:19:47.818Z,1026.9
2016-11-12T12:20:49.251Z,1026.9
2016-11-12T12:21:50.692Z,1026.9
2016-11-12T12:22:52.132Z,1026.8
2016-11-12T12:23:53.570Z,1026.8
2016-11-12T12:24:55.009Z,1026.8
2016-11-12T12:25:56.452Z,1026.9
2016-11-12T12:27:59.293Z,1026.9
2016-11-12T12:29:00.734Z,1026.9
2016-11-12T12:30:02.181Z,1026.9
2016-11-12T12:31:03.617Z,1026.9
2016-11-12T12:32:05.062Z,1026.9
2016-11-12T12:33:06.498Z,1026.9
2016-11-12T12:34:07.941Z,1026.9
2016-11-12T12:35:09.381Z,1026.9
2016-11-12T12:36:10.824Z,1026.9
2016-11-12T12:37:12.260Z,1026.9
2016-11-12T12:38:13.696Z,1026.9
2016-11-12T12:39:15.133Z,1026.9
2016-11-12T12:40:16.568Z,1026.8
2016-11-12T12:41:18.003Z,1026.8
2016-11-12T12:42:19.443Z,1026.8
2016-11-12T12:43:20.887Z,1026.8
2016-11-12T12:44:22.323Z,1026.9
2016-11-12T12:45:23.760Z,1026.8
2016-11-12T12:46:25.198Z,1026.8
2016-11-12T12:47:26.640Z,1026.8
2016-11-12T12:48:28.081Z,1026.8
2016-11-12T12:49:29.521Z,1026.8
2016-11-12T12:50:30.959Z,1026.8
2016-11-12T12:51:32.428Z,1026.8
2016-11-12T12:52:33.870Z,1026.8
2016-11-12T12:53:35.308Z,1026.8
2016-11-12T12:54:36.745Z,1026.8
2016-11-12T12:55:38.184Z,1026.8
2016-11-12T12:56:39.620Z,1026.9
2016-11-12T12:57:41.057Z,1026.8
2016-11-12T12:58:42.495Z,1026.8
2016-11-12T12:59:43.974Z,1026.8
2016-11-12T13:00:45.418Z,1026.8
2016-11-12T13:01:46.852Z,1026.8
2016-11-12T13:02:48.294Z,1026.8
2016-11-12T13:03:49.737Z,1026.8
2016-11-12T13:04:51.283Z,1026.8
2016-11-12T13:05:52.723Z,1026.8
2016-11-12T13:06:54.166Z,1026.8
2016-11-12T13:08:56.927Z,1026.8
2016-11-12T13:09:58.366Z,1026.8
2016-11-12T13:10:59.802Z,1026.8
2016-11-12T13:12:01.240Z,1026.8
2016-11-12T13:13:02.685Z,1026.8
2016-11-12T13:14:04.121Z,1026.8
2016-11-12T13:15:05.562Z,1026.8
2016-11-12T13:16:07.000Z,1026.8
2016-11-12T13:17:08.439Z,1026.7
2016-11-12T13:18:09.874Z,1026.8
2016-11-12T13:19:11.306Z,1026.8
2016-11-12T13:20:12.744Z,1026.8
2016-11-12T13:21:14.190Z,1026.8
2016-11-12T13:22:15.626Z,1026.8
2016-11-12T13:23:17.067Z,1026.8
2016-11-12T13:24:18.512Z,1026.8
2016-11-12T13:25:19.950Z,1026.8
2016-11-12T13:26:21.387Z,1026.8
2016-11-12T13:27:22.825Z,1026.8
2016-11-12T13:28:24.266Z,1026.8
2016-11-12T13:29:25.702Z,1026.8
2016-11-12T13:30:27.139Z,1026.8
2016-11-12T13:31:28.582Z,1026.8
2016-11-12T13:32:30.018Z,1026.8
2016-11-12T13:33:31.455Z,1026.8
2016-11-12T13:34:32.895Z,1026.8
2016-11-12T13:35:34.333Z,1026.8
2016-11-12T13:36:35.780Z,1026.7
2016-11-12T13:38:38.620Z,1026.8
2016-11-12T13:39:40.058Z,1026.8
2016-11-12T13:40:41.492Z,1026.7
2016-11-12T13:41:42.938Z,1026.7
2016-11-12T13:42:44.376Z,1026.7